Lyons, New Jersey
Current Conditions -  °F | °C
As of 3:53 PM on Thursday 23 Oct 2014 (Local Time) from KSMQ Reporting Station
Broken Clouds Broken Clouds  
Wind Chill: 55°   Ceiling: 2800
Heat Index: 55°   Visibility: 10mi
Dew Point: 44°   Wind: 15mph
Humidity: 67%   Direction: 340°NNW
Pressure: 29.72"   Gusts: 26mph
Location:  40.69°N, 74.55°W
Report Text: KSMQ 231953Z AUTO 34013G23KT 10SM BKN028 BKN090 13/07 A2972 RMK AO2 SLP064 T01280067
Loading
Personal Weather Stations






























Interactive Weather Map
Tropical Storm Tracking
New forecast layout! Learn more

10-Day Weather Forecast

Advertisements
Track Severe Weather on mobile